Time;durP1;ratioP1;P1;durP2;ratioP2;P2;SDS_P1;SDS_P2;PMS_P1;PMS_P2;Temp;Humidity;BMP_temperature;BMP_pressure;BME280_temperature;BME280_humidity;BME280_pressure;Samples;Min_cycle;Max_cycle;Signal;HPM_P1;HPM_P2
2021/09/15 00:02:24;;;;;;;16.58;14.90;;;19.30;99.90;;;;;;5041317;28;20029;-64
2021/09/15 00:04:50;;;;;;;15.85;14.25;;;19.30;99.90;;;;;;5055400;28;20033;-64
2021/09/15 00:07:15;;;;;;;15.05;13.52;;;19.30;99.90;;;;;;5043576;28;20095;-64
2021/09/15 00:09:41;;;;;;;15.63;14.02;;;19.40;99.90;;;;;;5057261;28;20032;-64
2021/09/15 00:12:07;;;;;;;14.20;12.80;;;19.30;99.90;;;;;;5045623;28;20022;-64
2021/09/15 00:14:32;;;;;;;13.75;12.23;;;19.30;99.90;;;;;;5049673;28;20032;-64
2021/09/15 00:16:57;;;;;;;17.95;13.13;;;19.30;99.90;;;;;;5044450;28;20025;-64
2021/09/15 00:19:23;;;;;;;14.48;12.93;;;19.40;99.90;;;;;;5061494;28;20033;-64
2021/09/15 00:21:48;;;;;;;12.50;11.25;;;19.40;99.90;;;;;;5050185;28;20052;-64
2021/09/15 00:24:14;;;;;;;15.38;12.18;;;19.40;99.90;;;;;;5043245;28;20025;-64
2021/09/15 00:26:40;;;;;;;12.63;11.32;;;19.40;99.90;;;;;;5042441;28;20077;-64
2021/09/15 00:29:05;;;;;;;13.43;12.00;;;19.40;99.90;;;;;;5036481;28;20025;-64
2021/09/15 00:31:31;;;;;;;13.55;11.27;;;19.40;99.90;;;;;;5050470;28;20052;-64
2021/09/15 00:33:56;;;;;;;13.10;11.32;;;19.30;99.90;;;;;;5046674;28;20147;-64
2021/09/15 00:36:22;;;;;;;12.73;11.40;;;19.30;99.90;;;;;;5049985;28;20025;-64
2021/09/15 00:38:47;;;;;;;11.40;10.13;;;19.30;99.90;;;;;;5042559;28;20104;-64
2021/09/15 00:41:12;;;;;;;11.45;10.25;;;19.30;99.90;;;;;;5054400;28;20035;-64
2021/09/15 00:43:58;;;;;;;12.60;10.57;;;19.30;99.90;;;;;;5052700;28;20016;-64
2021/09/15 00:46:24;;;;;;;11.98;10.82;;;19.30;99.90;;;;;;5033610;28;20052;-64
2021/09/15 00:48:49;;;;;;;10.52;9.50;;;19.30;99.90;;;;;;5041050;28;20018;-64
2021/09/15 00:51:15;;;;;;;10.10;9.05;;;19.20;99.90;;;;;;5037645;28;20472;-64
2021/09/15 00:53:41;;;;;;;10.18;9.13;;;19.20;99.90;;;;;;5058653;28;20094;-64
2021/09/15 00:56:07;;;;;;;10.98;9.65;;;19.20;99.90;;;;;;5044742;28;20419;-64
2021/09/15 00:58:33;;;;;;;12.70;9.95;;;19.20;99.90;;;;;;5065642;28;20059;-64
2021/09/15 01:00:59;;;;;;;12.15;10.85;;;19.10;99.90;;;;;;5066525;28;20025;-64
2021/09/15 01:03:25;;;;;;;12.30;11.10;;;19.10;99.90;;;;;;5053450;28;20079;-64
2021/09/15 01:05:50;;;;;;;12.50;11.07;;;19.10;99.90;;;;;;5046520;28;20033;-64
2021/09/15 01:08:17;;;;;;;10.57;9.55;;;19.00;99.90;;;;;;5042017;28;20027;-64
2021/09/15 01:10:42;;;;;;;10.68;9.68;;;19.00;99.90;;;;;;5050609;28;20119;-64
2021/09/15 01:13:08;;;;;;;9.70;8.68;;;19.00;99.90;;;;;;5058282;28;20096;-64
2021/09/15 01:15:34;;;;;;;9.10;8.30;;;19.00;99.90;;;;;;5057969;28;20030;-64
2021/09/15 01:18:11;;;;;;;9.05;8.20;;;19.00;99.90;;;;;;5048715;28;20032;-64
2021/09/15 01:20:37;;;;;;;8.18;7.28;;;19.00;99.90;;;;;;5051994;28;20021;-64
2021/09/15 01:23:03;;;;;;;8.48;7.05;;;19.10;99.90;;;;;;5053046;28;20407;-64
2021/09/15 01:25:28;;;;;;;7.68;6.97;;;19.10;99.90;;;;;;5026422;28;20501;-64
2021/09/15 01:27:54;;;;;;;7.15;6.45;;;19.10;99.90;;;;;;5051004;28;20025;-64
2021/09/15 01:30:19;;;;;;;6.85;6.18;;;19.10;99.90;;;;;;5044127;28;20028;-64
2021/09/15 01:32:45;;;;;;;7.68;6.40;;;19.20;99.90;;;;;;5049109;28;20040;-64
2021/09/15 01:35:10;;;;;;;7.38;6.65;;;19.10;99.90;;;;;;5060006;28;20020;-64
2021/09/15 01:37:36;;;;;;;8.98;8.05;;;19.10;99.90;;;;;;5057029;28;20424;-64
2021/09/15 01:40:02;;;;;;;7.70;6.95;;;19.10;99.90;;;;;;5037605;28;20045;-64
2021/09/15 01:42:28;;;;;;;6.88;6.28;;;19.10;99.90;;;;;;5052785;28;20080;-64
2021/09/15 01:44:53;;;;;;;9.80;6.68;;;19.10;99.90;;;;;;5047711;28;20523;-64
2021/09/15 01:47:19;;;;;;;6.55;5.95;;;19.10;99.90;;;;;;5046622;28;20036;-65
2021/09/15 01:49:46;;;;;;;6.97;6.10;;;19.10;99.90;;;;;;5050706;28;20123;-64
2021/09/15 01:52:14;;;;;;;7.15;5.63;;;19.20;99.90;;;;;;5044955;28;20014;-64
2021/09/15 01:54:40;;;;;;;8.65;6.43;;;19.20;99.90;;;;;;5059973;28;20062;-64
2021/09/15 01:57:06;;;;;;;6.88;6.15;;;19.10;99.90;;;;;;5062841;28;20012;-65
2021/09/15 01:59:32;;;;;;;7.97;6.57;;;19.10;99.90;;;;;;5044729;28;20109;-64
2021/09/15 02:01:57;;;;;;;7.25;6.25;;;19.20;99.90;;;;;;5033406;28;20128;-64
2021/09/15 02:04:23;;;;;;;7.82;6.63;;;19.10;99.90;;;;;;5055030;28;20541;-64
2021/09/15 02:06:48;;;;;;;7.18;6.28;;;19.00;99.90;;;;;;5038790;28;20017;-64
2021/09/15 02:09:14;;;;;;;8.60;6.00;;;19.00;99.90;;;;;;5060857;28;20073;-64
2021/09/15 02:11:40;;;;;;;6.05;5.50;;;19.00;99.90;;;;;;5052351;28;20017;-64
2021/09/15 02:14:06;;;;;;;5.40;4.90;;;19.00;99.90;;;;;;5049357;28;20037;-64
2021/09/15 02:16:33;;;;;;;4.93;4.45;;;19.00;99.90;;;;;;5045331;28;20028;-64
2021/09/15 02:18:58;;;;;;;5.50;5.00;;;18.90;99.90;;;;;;5064575;28;20503;-64
2021/09/15 02:21:24;;;;;;;8.05;6.85;;;18.80;99.90;;;;;;5044931;28;20025;-64
2021/09/15 02:23:49;;;;;;;8.77;7.43;;;18.70;99.90;;;;;;5054271;28;20104;-64
2021/09/15 02:26:15;;;;;;;7.95;7.15;;;18.60;99.90;;;;;;5059181;28;20029;-64
2021/09/15 02:28:41;;;;;;;7.20;6.50;;;18.60;99.90;;;;;;5041450;28;20097;-64
2021/09/15 02:31:07;;;;;;;7.53;5.70;;;18.60;99.90;;;;;;5041977;28;20087;-64
2021/09/15 02:33:33;;;;;;;6.32;5.72;;;18.70;99.90;;;;;;5042682;28;20068;-64
2021/09/15 02:35:59;;;;;;;6.43;5.50;;;18.70;99.90;;;;;;5058716;28;20079;-64
2021/09/15 02:38:25;;;;;;;5.70;4.72;;;18.80;99.90;;;;;;5057208;28;20385;-64
2021/09/15 02:40:51;;;;;;;6.30;4.75;;;18.80;99.90;;;;;;5056067;28;20021;-64
2021/09/15 02:43:16;;;;;;;7.07;5.43;;;18.80;99.90;;;;;;5048526;28;20029;-64
2021/09/15 02:45:42;;;;;;;7.22;6.18;;;18.90;99.90;;;;;;5054306;28;20455;-64
2021/09/15 02:48:07;;;;;;;7.18;5.80;;;18.80;99.90;;;;;;5046449;28;20029;-64
2021/09/15 02:50:33;;;;;;;7.43;5.78;;;18.80;99.90;;;;;;5042505;28;20033;-64
2021/09/15 02:52:59;;;;;;;6.00;5.40;;;18.80;99.90;;;;;;5053853;28;20025;-64
2021/09/15 02:55:25;;;;;;;6.18;5.57;;;18.90;99.90;;;;;;5050483;28;20079;-64
2021/09/15 02:57:51;;;;;;;5.88;5.03;;;18.90;99.90;;;;;;5060620;28;20040;-64
2021/09/15 03:00:17;;;;;;;5.88;5.30;;;18.90;99.90;;;;;;5057300;28;20087;-64
2021/09/15 03:02:43;;;;;;;8.82;6.30;;;18.90;99.90;;;;;;5041612;28;20469;-64
2021/09/15 03:05:09;;;;;;;7.05;6.00;;;18.90;99.90;;;;;;5047514;28;20060;-64
2021/09/15 03:07:35;;;;;;;8.77;7.88;;;18.90;99.90;;;;;;5063895;28;20036;-64
2021/09/15 03:10:02;;;;;;;7.65;6.88;;;18.80;99.90;;;;;;5048281;28;20396;-64
2021/09/15 03:12:28;;;;;;;9.93;7.32;;;18.70;99.90;;;;;;5050957;28;20033;-64
2021/09/15 03:14:53;;;;;;;8.85;7.88;;;18.70;99.90;;;;;;5042600;28;20029;-66
2021/09/15 03:17:18;;;;;;;9.10;8.23;;;18.60;99.90;;;;;;5059171;28;20037;-64
2021/09/15 03:19:44;;;;;;;10.82;9.07;;;18.60;99.90;;;;;;5055332;28;20043;-64
2021/09/15 03:22:09;;;;;;;11.20;10.02;;;18.60;99.90;;;;;;5057854;28;20100;-64
2021/09/15 03:24:35;;;;;;;11.23;10.00;;;18.60;99.90;;;;;;5041032;28;20025;-64
2021/09/15 03:27:03;;;;;;;10.68;9.57;;;18.60;99.90;;;;;;5050851;28;20017;-64
2021/09/15 03:29:30;;;;;;;11.10;10.00;;;18.60;99.90;;;;;;5047217;28;20045;-64
2021/09/15 03:31:56;;;;;;;11.02;9.93;;;18.60;99.90;;;;;;5046695;28;20017;-64
2021/09/15 03:34:22;;;;;;;11.27;9.50;;;18.60;99.90;;;;;;5052739;28;20031;-64
2021/09/15 03:36:47;;;;;;;10.43;9.35;;;18.60;99.90;;;;;;5049107;28;20025;-64
2021/09/15 03:39:14;;;;;;;8.98;8.10;;;18.60;99.90;;;;;;5049570;28;20017;-64
2021/09/15 03:41:40;;;;;;;9.73;8.60;;;18.70;99.90;;;;;;5041607;28;20021;-64
2021/09/15 03:44:05;;;;;;;9.27;8.35;;;18.70;99.90;;;;;;5052444;28;20108;-64
2021/09/15 03:46:31;;;;;;;12.38;8.93;;;18.70;99.90;;;;;;5040571;28;20057;-64
2021/09/15 03:48:57;;;;;;;8.90;8.00;;;18.70;99.90;;;;;;5050478;28;20025;-64
2021/09/15 03:51:22;;;;;;;7.72;6.85;;;18.70;99.90;;;;;;5048734;28;20492;-64
2021/09/15 03:53:48;;;;;;;7.63;6.93;;;18.70;99.90;;;;;;5058572;28;20024;-64
2021/09/15 03:56:13;;;;;;;10.63;9.52;;;18.70;99.90;;;;;;5049051;28;20025;-64
2021/09/15 03:58:39;;;;;;;11.50;10.40;;;18.70;99.90;;;;;;5036571;28;20034;-64
2021/09/15 04:01:04;;;;;;;11.13;9.65;;;18.70;99.90;;;;;;5050494;28;20013;-64
2021/09/15 04:03:30;;;;;;;11.95;9.68;;;18.60;99.90;;;;;;5058549;28;20112;-64
2021/09/15 04:05:55;;;;;;;11.23;9.10;;;18.60;99.90;;;;;;5037132;28;20481;-64
2021/09/15 04:08:21;;;;;;;9.13;8.07;;;18.60;99.90;;;;;;5051177;28;20029;-64
2021/09/15 04:10:46;;;;;;;8.60;7.70;;;18.70;99.90;;;;;;5046036;28;20025;-64
2021/09/15 04:13:12;;;;;;;8.43;7.25;;;18.70;99.90;;;;;;5043807;28;20048;-64
2021/09/15 04:15:37;;;;;;;8.63;7.15;;;18.80;99.90;;;;;;5048630;28;20402;-64
2021/09/15 04:18:03;;;;;;;7.35;6.53;;;18.80;99.90;;;;;;5041704;28;20496;-64
2021/09/15 04:20:28;;;;;;;7.80;6.30;;;18.90;99.90;;;;;;5051111;28;20029;-64
2021/09/15 04:22:54;;;;;;;6.75;6.15;;;18.90;99.90;;;;;;5057241;28;20504;-64
2021/09/15 04:33:34;;;;;;;6.32;5.72;;;19.00;99.90;;;;;;5042006;28;20068;-64
2021/09/15 04:35:59;;;;;;;6.80;5.68;;;19.00;99.90;;;;;;5016470;28;20021;-64
2021/09/15 04:38:25;;;;;;;6.80;5.88;;;19.00;99.90;;;;;;5041706;28;20388;-64
2021/09/15 04:40:51;;;;;;;6.25;5.43;;;19.00;99.90;;;;;;5040121;28;20454;-64
2021/09/15 04:43:16;;;;;;;7.32;6.30;;;19.00;99.90;;;;;;5054464;28;20021;-64
2021/09/15 04:45:42;;;;;;;7.82;7.03;;;19.00;99.90;;;;;;5041181;28;20108;-64
2021/09/15 04:48:07;;;;;;;7.25;6.10;;;19.00;99.90;;;;;;5044678;28;20022;-64
2021/09/15 04:50:33;;;;;;;6.95;6.32;;;19.00;99.90;;;;;;5053795;28;20068;-64
2021/09/15 04:52:58;;;;;;;7.03;6.32;;;19.10;99.90;;;;;;5049356;28;20512;-64
2021/09/15 04:55:24;;;;;;;6.90;6.00;;;19.00;99.90;;;;;;5050409;28;20439;-64
2021/09/15 04:57:50;;;;;;;7.80;6.18;;;19.00;99.90;;;;;;5050467;28;20024;-64
2021/09/15 05:00:15;;;;;;;7.10;5.85;;;19.10;99.90;;;;;;5058902;28;20057;-64
2021/09/15 05:02:41;;;;;;;7.63;6.43;;;19.10;99.90;;;;;;5035621;28;20029;-64
2021/09/15 05:05:07;;;;;;;7.97;6.95;;;19.00;99.90;;;;;;5041441;28;20024;-64
2021/09/15 05:07:33;;;;;;;8.85;7.88;;;19.10;99.90;;;;;;5048435;28;20053;-64
2021/09/15 05:09:59;;;;;;;9.35;7.95;;;19.00;99.90;;;;;;5050780;28;20049;-64
2021/09/15 05:12:24;;;;;;;8.98;8.15;;;18.90;99.90;;;;;;5025381;28;20025;-64
2021/09/15 05:14:50;;;;;;;10.02;9.02;;;18.90;99.90;;;;;;5055569;28;20087;-64
2021/09/15 05:17:15;;;;;;;10.45;9.35;;;18.80;99.90;;;;;;5036310;28;20461;-65
2021/09/15 05:19:41;;;;;;;8.80;7.90;;;18.80;99.90;;;;;;5040258;28;20016;-65
2021/09/15 05:22:06;;;;;;;9.77;8.77;;;18.80;99.90;;;;;;5058080;28;20031;-65
2021/09/15 05:24:32;;;;;;;13.35;11.25;;;18.80;99.90;;;;;;5035316;28;20103;-65
2021/09/15 05:26:57;;;;;;;12.70;10.65;;;18.80;99.90;;;;;;5054499;28;20025;-65
2021/09/15 05:32:10;;;;;;;11.50;10.30;;;18.70;99.90;;;;;;5055135;28;20473;-64
2021/09/15 05:34:36;;;;;;;10.98;9.88;;;18.70;99.90;;;;;;5055482;28;20020;-64
2021/09/15 05:37:02;;;;;;;10.90;9.80;;;18.70;99.90;;;;;;5055846;28;20390;-64
2021/09/15 05:39:27;;;;;;;10.00;9.00;;;18.70;99.90;;;;;;5042369;28;20057;-64
2021/09/15 05:41:53;;;;;;;9.65;8.25;;;18.70;99.90;;;;;;5050278;28;20071;-64
2021/09/15 05:44:18;;;;;;;8.57;7.68;;;18.80;99.90;;;;;;5046718;28;20043;-64
2021/09/15 05:46:44;;;;;;;11.25;8.93;;;18.90;99.90;;;;;;5043162;28;20159;-64
2021/09/15 05:49:09;;;;;;;9.77;8.88;;;18.80;99.90;;;;;;5046526;28;20037;-64
2021/09/15 05:51:35;;;;;;;9.23;8.07;;;18.80;99.90;;;;;;5050317;28;20017;-64
2021/09/15 05:54:21;;;;;;;9.07;7.72;;;18.80;99.90;;;;;;5052485;28;20017;-64
2021/09/15 05:56:47;;;;;;;8.45;7.55;;;18.90;99.90;;;;;;5041667;28;20091;-65
2021/09/15 05:59:12;;;;;;;8.75;7.40;;;18.90;99.90;;;;;;5047551;28;20025;-65
2021/09/15 06:01:38;;;;;;;8.75;7.90;;;19.00;99.90;;;;;;5049790;28;20032;-64
2021/09/15 06:04:04;;;;;;;9.80;8.27;;;18.90;99.90;;;;;;5042155;28;20021;-64
2021/09/15 06:06:29;;;;;;;9.70;8.52;;;18.90;99.90;;;;;;5057704;28;20059;-64
2021/09/15 06:08:55;;;;;;;9.40;8.48;;;18.90;99.90;;;;;;5055335;28;20036;-64
2021/09/15 06:11:20;;;;;;;11.48;8.10;;;19.00;99.90;;;;;;5041931;28;20025;-64
2021/09/15 06:13:46;;;;;;;8.75;7.38;;;19.00;99.90;;;;;;5042282;28;20030;-64
2021/09/15 06:16:11;;;;;;;8.57;7.68;;;19.00;99.90;;;;;;5036395;28;20029;-64
2021/09/15 06:18:37;;;;;;;8.63;7.72;;;19.00;99.90;;;;;;5047162;28;20417;-64
2021/09/15 06:21:03;;;;;;;7.63;6.82;;;19.00;99.90;;;;;;5041328;28;20055;-64
2021/09/15 06:23:30;;;;;;;7.47;6.78;;;19.10;99.90;;;;;;5045752;28;20036;-64
2021/09/15 06:25:56;;;;;;;7.75;6.95;;;19.10;99.90;;;;;;5049437;28;20420;-64
2021/09/15 06:28:22;;;;;;;7.32;6.57;;;19.20;99.90;;;;;;5042109;28;20496;-64
2021/09/15 06:30:48;;;;;;;9.13;7.30;;;19.20;99.90;;;;;;5041908;28;20041;-64
2021/09/15 06:33:14;;;;;;;8.75;7.30;;;19.20;99.90;;;;;;5049159;28;20076;-64
2021/09/15 06:35:40;;;;;;;7.63;6.93;;;19.20;99.90;;;;;;5046981;28;20488;-64
2021/09/15 06:38:09;;;;;;;7.88;6.82;;;19.30;99.90;;;;;;5041009;28;20021;-64
2021/09/15 06:40:50;;;;;;;9.30;7.80;;;19.30;99.90;;;;;;5044641;28;20026;-65
2021/09/15 06:43:16;;;;;;;10.90;6.97;;;19.30;99.90;;;;;;5046138;28;20033;-64
2021/09/15 06:45:41;;;;;;;8.20;7.38;;;19.20;99.90;;;;;;5044989;28;20424;-64
2021/09/15 06:48:07;;;;;;;8.45;7.00;;;19.20;99.90;;;;;;5052261;28;20468;-64
2021/09/15 06:50:33;;;;;;;8.77;7.95;;;19.20;99.90;;;;;;5037451;28;20068;-64
2021/09/15 06:52:59;;;;;;;9.50;8.30;;;19.20;99.90;;;;;;5044982;28;20021;-65
2021/09/15 06:55:24;;;;;;;9.23;8.30;;;19.20;99.90;;;;;;5035423;28;20021;-65
2021/09/15 06:57:51;;;;;;;9.43;8.43;;;19.10;99.90;;;;;;5048845;28;20040;-65
2021/09/15 07:00:20;;;;;;;9.00;8.07;;;19.10;99.90;;;;;;5054815;28;20084;-65
2021/09/15 07:02:47;;;;;;;9.77;8.10;;;19.10;99.90;;;;;;5040469;28;20469;-65
2021/09/15 07:05:13;;;;;;;9.05;7.18;;;19.10;99.90;;;;;;5043148;28;20105;-65
2021/09/15 07:07:39;;;;;;;7.43;6.72;;;19.10;99.90;;;;;;5052164;28;20047;-65
2021/09/15 07:10:07;;;;;;;9.25;7.70;;;19.20;99.90;;;;;;5044672;28;20026;-66
2021/09/15 07:12:34;;;;;;;7.72;6.90;;;19.20;99.90;;;;;;5048314;28;20028;-65
2021/09/15 07:14:59;;;;;;;9.52;7.57;;;19.20;99.90;;;;;;5042818;28;20111;-65
2021/09/15 07:17:25;;;;;;;8.50;7.70;;;19.20;99.90;;;;;;5039924;28;20029;-65
2021/09/15 07:19:51;;;;;;;8.27;7.45;;;19.30;99.90;;;;;;5048159;28;20032;-66
2021/09/15 07:22:16;;;;;;;8.52;7.72;;;19.30;99.90;;;;;;5046624;28;20021;-66
2021/09/15 07:24:41;;;;;;;8.35;6.82;;;19.30;99.90;;;;;;5040033;28;20381;-66
2021/09/15 07:27:07;;;;;;;8.77;7.65;;;19.40;99.90;;;;;;5046042;28;20033;-65
2021/09/15 07:29:33;;;;;;;8.18;7.35;;;19.40;99.90;;;;;;5035175;28;20025;-66
2021/09/15 07:31:58;;;;;;;7.78;7.07;;;19.40;99.90;;;;;;5033694;28;20021;-66
2021/09/15 07:34:24;;;;;;;8.32;7.53;;;19.40;99.90;;;;;;5032269;28;20511;-66
2021/09/15 07:36:51;;;;;;;7.88;7.07;;;19.40;99.90;;;;;;5033640;28;20024;-66
2021/09/15 07:39:16;;;;;;;7.95;7.13;;;19.50;99.90;;;;;;5033377;28;20014;-65
2021/09/15 07:41:42;;;;;;;8.30;7.50;;;19.50;99.90;;;;;;5033321;28;20396;-65
2021/09/15 07:44:07;;;;;;;8.50;7.63;;;19.50;99.90;;;;;;5036321;28;20017;-65
2021/09/15 07:46:33;;;;;;;9.77;8.80;;;19.60;99.90;;;;;;5031887;28;20678;-66
2021/09/15 07:49:00;;;;;;;10.50;7.97;;;19.60;99.90;;;;;;5049392;28;20025;-65
2021/09/15 07:51:26;;;;;;;9.18;7.53;;;19.60;99.90;;;;;;5030846;28;20118;-66
2021/09/15 07:53:51;;;;;;;10.05;7.32;;;19.70;99.90;;;;;;5048876;28;20057;-65
2021/09/15 07:56:17;;;;;;;9.68;8.80;;;19.80;99.90;;;;;;5043315;28;20104;-65
2021/09/15 07:58:43;;;;;;;9.85;8.85;;;19.90;99.90;;;;;;5051711;28;20021;-65
2021/09/15 08:01:08;;;;;;;9.65;8.75;;;20.00;99.90;;;;;;5035763;28;20021;-65
2021/09/15 08:03:34;;;;;;;9.48;8.57;;;20.10;99.90;;;;;;5031871;28;20036;-66
2021/09/15 08:06:01;;;;;;;10.05;9.15;;;20.20;99.90;;;;;;5033256;28;20021;-65
2021/09/15 08:08:27;;;;;;;10.02;9.02;;;20.20;99.90;;;;;;5033032;28;20091;-65
2021/09/15 08:10:53;;;;;;;11.30;10.20;;;20.20;99.90;;;;;;5049199;28;20127;-65
2021/09/15 08:13:24;;;;;;;11.55;10.35;;;20.30;99.90;;;;;;5038885;28;20075;-66
2021/09/15 08:15:51;;;;;;;12.07;10.85;;;20.30;99.90;;;;;;5003641;28;20151;-65
2021/09/15 08:18:16;;;;;;;11.77;10.15;;;20.40;99.90;;;;;;5023411;28;20033;-65
2021/09/15 08:20:45;;;;;;;12.52;11.25;;;20.40;99.90;;;;;;5043909;28;20051;-65
2021/09/15 08:23:12;;;;;;;13.23;11.73;;;20.40;99.90;;;;;;5046637;28;20013;-65
2021/09/15 08:25:38;;;;;;;13.38;12.00;;;20.50;99.90;;;;;;5052222;28;20025;-65
2021/09/15 08:28:05;;;;;;;13.80;11.27;;;20.60;99.90;;;;;;5045938;28;20036;-65
2021/09/15 08:30:31;;;;;;;12.75;11.23;;;20.60;99.90;;;;;;5033038;28;20108;-65
2021/09/15 08:32:56;;;;;;;14.80;13.30;;;20.70;99.90;;;;;;5035164;28;20036;-65
2021/09/15 08:35:22;;;;;;;16.15;14.43;;;20.80;99.90;;;;;;5036167;28;20013;-65
2021/09/15 08:37:48;;;;;;;15.85;14.25;;;20.80;99.90;;;;;;5033140;28;20520;-65
2021/09/15 08:40:14;;;;;;;18.00;16.10;;;21.00;99.90;;;;;;5032941;28;20476;-65
2021/09/15 08:42:39;;;;;;;26.67;23.80;;;21.10;99.90;;;;;;5031609;28;20389;-65
2021/09/15 08:45:07;;;;;;;24.92;22.33;;;21.20;99.90;;;;;;5032162;28;20072;-65
2021/09/15 08:47:37;;;;;;;23.27;20.85;;;21.30;99.90;;;;;;5034204;28;20041;-65
2021/09/15 08:50:04;;;;;;;23.52;21.17;;;21.30;99.90;;;;;;5036317;28;20043;-65
2021/09/15 08:52:30;;;;;;;23.60;21.13;;;21.40;99.90;;;;;;5033303;28;20032;-65
2021/09/15 08:54:56;;;;;;;22.60;20.38;;;21.40;99.90;;;;;;5031522;28;20017;-65
2021/09/15 08:57:34;;;;;;;;;;;;;;;;;;;;;
2021/09/15 09:00:00;;;;;;;22.20;19.80;;;21.50;99.90;;;;;;5031868;28;20028;-65
2021/09/15 09:02:34;;;;;;;25.23;19.50;;;21.60;99.90;;;;;;5038328;28;20051;-65
2021/09/15 09:05:01;;;;;;;22.63;20.27;;;21.60;99.90;;;;;;5031878;28;20017;-65
2021/09/15 09:07:28;;;;;;;23.58;21.08;;;21.60;99.90;;;;;;5033036;28;20523;-65
2021/09/15 09:09:56;;;;;;;22.58;20.33;;;21.60;99.90;;;;;;5031932;28;20112;-65
2021/09/15 09:12:24;;;;;;;23.05;20.55;;;21.60;99.90;;;;;;5034421;28;20432;-65
2021/09/15 09:14:50;;;;;;;26.23;22.83;;;21.60;99.90;;;;;;5032003;28;20021;-65
2021/09/15 09:17:27;;;;;;;24.60;22.00;;;21.60;99.90;;;;;;5031930;28;20067;-66
2021/09/15 09:20:32;;;;;;;25.60;22.90;;;21.60;99.90;;;;;;5032173;28;20022;-66
2021/09/15 09:23:05;;;;;;;24.38;21.65;;;21.70;99.90;;;;;;5024251;28;20056;-65
2021/09/15 09:25:45;;;;;;;24.48;21.50;;;21.70;99.90;;;;;;5018993;28;20033;-65
2021/09/15 09:28:21;;;;;;;27.05;24.20;;;21.70;99.90;;;;;;5023808;28;20041;-66
2021/09/15 09:30:49;;;;;;;27.08;24.17;;;21.70;99.80;;;;;;5032656;28;20029;-66
2021/09/15 09:33:15;;;;;;;23.60;21.02;;;21.70;99.80;;;;;;5041859;28;20114;-65
2021/09/15 09:35:49;;;;;;;24.77;22.05;;;21.70;99.70;;;;;;5038794;28;20053;-65
2021/09/15 09:38:25;;;;;;;24.92;22.08;;;21.70;99.60;;;;;;5050157;28;20021;-66
2021/09/15 09:41:11;;;;;;;25.98;22.13;;;21.70;99.60;;;;;;5033803;28;20032;-65
2021/09/15 09:43:52;;;;;;;29.33;24.33;;;21.70;99.60;;;;;;5019252;28;20029;-65
2021/09/15 09:46:20;;;;;;;29.30;23.90;;;21.70;99.60;;;;;;5033358;28;20139;-65
2021/09/15 09:48:54;;;;;;;29.90;24.67;;;21.70;99.60;;;;;;5051509;28;20025;-65
2021/09/15 09:51:39;;;;;;;33.83;25.75;;;21.80;99.50;;;;;;5026404;28;20033;-65
2021/09/15 09:54:26;;;;;;;27.05;23.08;;;21.90;99.30;;;;;;5048638;28;20036;-66
2021/09/15 09:56:53;;;;;;;22.00;19.00;;;22.00;99.10;;;;;;5040240;28;20025;-65
2021/09/15 09:59:21;;;;;;;27.92;22.52;;;22.00;99.10;;;;;;5050122;28;20104;-65
2021/09/15 10:01:54;;;;;;;26.70;23.55;;;22.00;99.00;;;;;;5030099;28;20021;-65
2021/09/15 10:04:21;;;;;;;30.92;25.67;;;22.00;98.90;;;;;;5050670;28;20036;-65
2021/09/15 10:06:47;;;;;;;25.67;21.35;;;21.90;98.90;;;;;;5044480;28;20036;-65
2021/09/15 10:09:14;;;;;;;30.02;26.63;;;21.90;98.90;;;;;;5048267;28;20060;-65
2021/09/15 10:11:41;;;;;;;25.70;23.00;;;21.90;98.80;;;;;;5047801;28;20496;-66
2021/09/15 10:14:17;;;;;;;26.45;23.70;;;21.90;98.70;;;;;;5040525;28;20037;-65
2021/09/15 10:16:54;;;;;;;29.75;26.58;;;21.90;98.60;;;;;;5052697;28;20032;-65
2021/09/15 10:19:34;;;;;;;30.55;27.27;;;21.90;98.50;;;;;;5048150;28;20024;-65
2021/09/15 10:22:14;;;;;;;31.13;27.85;;;22.00;98.40;;;;;;5048874;28;20029;-65
2021/09/15 10:28:12;;;;;;;31.48;28.17;;;22.00;98.10;;;;;;5014869;28;20033;-65
2021/09/15 10:30:41;;;;;;;34.55;30.85;;;21.90;98.10;;;;;;5049031;28;20374;-65
2021/09/15 10:33:06;;;;;;;33.05;29.63;;;21.80;97.90;;;;;;5046060;28;20078;-65
2021/09/15 10:36:20;;;;;;;30.23;26.95;;;21.90;97.90;;;;;;5040956;28;20033;-65
2021/09/15 10:39:01;;;;;;;30.50;26.00;;;22.00;97.80;;;;;;5032257;28;20022;-65
2021/09/15 10:41:41;;;;;;;36.33;31.25;;;22.30;97.60;;;;;;5045278;28;20427;-65
2021/09/15 10:44:09;;;;;;;40.30;34.47;;;22.40;97.10;;;;;;5041016;28;20021;-65
2021/09/15 10:46:36;;;;;;;35.88;29.45;;;22.40;96.80;;;;;;5044169;28;20128;-65
2021/09/15 10:49:40;;;;;;;32.72;27.10;;;22.50;96.70;;;;;;5048938;28;20079;-65
2021/09/15 10:52:11;;;;;;;37.83;30.90;;;22.60;96.40;;;;;;5048619;28;20481;-65
2021/09/15 10:54:52;;;;;;;31.60;27.38;;;22.60;95.80;;;;;;5040538;28;20040;-65
2021/09/15 10:57:27;;;;;;;35.00;27.88;;;22.60;95.70;;;;;;5053339;28;20025;-65
2021/09/15 11:00:16;;;;;;;32.47;26.52;;;22.60;95.50;;;;;;5042781;28;20025;-65
2021/09/15 11:02:43;;;;;;;30.48;25.13;;;22.60;95.50;;;;;;5032140;28;20033;-65
2021/09/15 11:05:27;;;;;;;34.35;30.15;;;22.60;95.60;;;;;;5033469;28;20458;-65
2021/09/15 11:07:59;;;;;;;34.03;27.27;;;22.60;95.20;;;;;;5054165;28;20099;-65
2021/09/15 11:10:33;;;;;;;30.63;24.60;;;22.60;95.00;;;;;;5054389;28;20025;-65
2021/09/15 11:13:14;;;;;;;22.35;19.65;;;22.90;94.90;;;;;;5040131;28;20025;-66
2021/09/15 11:15:44;;;;;;;22.80;20.30;;;23.70;94.50;;;;;;5043270;28;20025;-65
2021/09/15 11:18:21;;;;;;;;;;;24.10;93.40;;;;;;5052432;28;20028;-66
2021/09/15 11:21:00;;;;;;;17.98;16.15;;;24.50;93.00;;;;;;5033711;28;19964;-65
2021/09/15 11:23:33;;;;;;;11.82;10.73;;;25.90;91.20;;;;;;5033131;28;20053;-66
2021/09/15 11:26:01;;;;;;;9.25;8.35;;;27.40;86.00;;;;;;5048423;28;20041;-66
2021/09/15 11:28:46;;;;;;;;;;;;;;;;;;;;;
2021/09/15 11:31:12;;;;;;;8.07;7.30;;;28.40;77.90;;;;;;5039666;28;20035;-66
2021/09/15 11:34:02;;;;;;;8.63;7.75;;;28.20;76.30;;;;;;5033239;28;20112;-66
2021/09/15 11:36:27;;;;;;;7.78;7.07;;;27.90;76.00;;;;;;5035973;28;20390;-66
2021/09/15 11:38:53;;;;;;;7.68;6.55;;;27.40;76.40;;;;;;5038686;28;20528;-66
2021/09/15 11:41:19;;;;;;;6.97;6.28;;;26.80;77.50;;;;;;5033605;28;20432;-66
2021/09/15 11:43:47;;;;;;;8.95;8.05;;;26.40;79.10;;;;;;5039020;28;20374;-66
2021/09/15 11:46:42;;;;;;;8.18;7.40;;;26.10;79.00;;;;;;5033160;28;20107;-66
2021/09/15 11:49:07;;;;;;;8.75;7.95;;;25.60;78.90;;;;;;5036246;28;20029;-66
2021/09/15 11:51:36;;;;;;;9.27;8.38;;;25.10;79.80;;;;;;5033335;28;20329;-66
2021/09/15 11:54:16;;;;;;;9.37;8.17;;;24.90;80.90;;;;;;5032789;28;20033;-65
2021/09/15 11:57:04;;;;;;;8.65;7.82;;;24.60;80.40;;;;;;5043875;28;20666;-65
2021/09/15 11:59:48;;;;;;;8.93;7.93;;;24.40;80.80;;;;;;5039753;28;20500;-66
2021/09/15 12:02:14;;;;;;;8.88;8.02;;;24.30;81.10;;;;;;5039795;28;20040;-66
2021/09/15 12:04:44;;;;;;;9.93;7.35;;;24.10;80.90;;;;;;5047436;28;20112;-65
2021/09/15 12:07:13;;;;;;;9.30;7.63;;;24.00;81.50;;;;;;5047048;28;20471;-65
2021/09/15 12:09:42;;;;;;;6.75;6.00;;;23.80;81.50;;;;;;5033101;28;20029;-65
2021/09/15 12:12:10;;;;;;;8.75;6.65;;;23.80;81.80;;;;;;5032997;28;20033;-66
2021/09/15 12:14:36;;;;;;;6.47;5.80;;;23.80;82.00;;;;;;5033110;28;20030;-66
2021/09/15 12:17:06;;;;;;;6.38;5.68;;;23.80;81.60;;;;;;5047198;28;20029;-66
2021/09/15 12:19:32;;;;;;;5.32;4.72;;;23.80;81.20;;;;;;5039834;28;20055;-66
2021/09/15 12:22:18;;;;;;;4.97;3.83;;;23.70;81.20;;;;;;5040595;28;20017;-66
2021/09/15 12:24:59;;;;;;;6.63;4.22;;;23.70;81.30;;;;;;5035634;28;20026;-66
2021/09/15 12:27:24;;;;;;;5.55;4.00;;;23.60;81.50;;;;;;5036014;28;20032;-66
2021/09/15 12:30:00;;;;;;;6.63;3.80;;;23.50;82.10;;;;;;5043992;28;20385;-66
2021/09/15 12:32:32;;;;;;;5.03;3.60;;;23.50;81.90;;;;;;5034704;28;20493;-66
2021/09/15 12:34:58;;;;;;;4.65;3.50;;;23.40;81.90;;;;;;5044670;28;20024;-66
2021/09/15 12:37:24;;;;;;;3.75;2.78;;;23.30;82.30;;;;;;5038737;28;20025;-66
2021/09/15 12:39:59;;;;;;;4.25;2.85;;;23.30;82.30;;;;;;5050290;28;20474;-66
2021/09/15 12:42:32;;;;;;;3.35;2.50;;;23.40;82.00;;;;;;5050596;28;20052;-66
2021/09/15 12:45:33;;;;;;;3.30;2.95;;;23.50;81.70;;;;;;5045357;28;20497;-66
2021/09/15 12:48:00;;;;;;;3.25;2.40;;;23.50;81.40;;;;;;5030875;28;20037;-66
2021/09/15 12:50:29;;;;;;;5.00;2.58;;;23.30;82.00;;;;;;5014072;28;20028;-66
2021/09/15 12:53:09;;;;;;;4.82;2.42;;;23.30;82.20;;;;;;5031132;28;20025;-66
2021/09/15 12:55:50;;;;;;;3.88;2.30;;;23.30;81.90;;;;;;5027753;28;20032;-66
2021/09/15 12:58:25;;;;;;;3.10;1.73;;;23.60;82.10;;;;;;5012049;28;20068;-66
2021/09/15 13:00:51;;;;;;;2.05;1.20;;;25.20;79.80;;;;;;5030886;28;20104;-66
2021/09/15 13:03:29;;;;;;;2.30;1.40;;;26.40;76.60;;;;;;5031330;28;20093;-66